sensor_id;sensor_type;location;lat;lon;timestamp;P1;durP1;ratioP1;P2;durP2;ratioP2
65636;SDS011;52327;42.622;23.316;2022-10-17T00:00:43;1.52;;;1.42;;
65636;SDS011;52327;42.622;23.316;2022-10-17T00:03:09;0.73;;;0.73;;
65636;SDS011;52327;42.622;23.316;2022-10-17T00:05:38;0.85;;;0.70;;
65636;SDS011;52327;42.622;23.316;2022-10-17T00:08:05;1.35;;;1.25;;
65636;SDS011;52327;42.622;23.316;2022-10-17T00:10:31;1.00;;;0.60;;
65636;SDS011;52327;42.622;23.316;2022-10-17T00:12:56;0.65;;;0.65;;
65636;SDS011;52327;42.622;23.316;2022-10-17T00:15:22;2.40;;;1.17;;
65636;SDS011;52327;42.622;23.316;2022-10-17T00:17:47;3.22;;;1.15;;
65636;SDS011;52327;42.622;23.316;2022-10-17T00:20:13;0.65;;;0.65;;
65636;SDS011;52327;42.622;23.316;2022-10-17T00:22:40;0.90;;;0.90;;
65636;SDS011;52327;42.622;23.316;2022-10-17T00:25:05;1.27;;;0.95;;
65636;SDS011;52327;42.622;23.316;2022-10-17T00:27:38;0.68;;;0.52;;
65636;SDS011;52327;42.622;23.316;2022-10-17T00:30:06;0.52;;;0.52;;
65636;SDS011;52327;42.622;23.316;2022-10-17T00:32:34;1.00;;;0.75;;
65636;SDS011;52327;42.622;23.316;2022-10-17T00:35:00;0.88;;;0.60;;
65636;SDS011;52327;42.622;23.316;2022-10-17T00:37:26;1.08;;;0.60;;
65636;SDS011;52327;42.622;23.316;2022-10-17T00:39:52;1.15;;;1.05;;
65636;SDS011;52327;42.622;23.316;2022-10-17T00:42:18;1.00;;;0.82;;
65636;SDS011;52327;42.622;23.316;2022-10-17T00:47:12;0.70;;;0.70;;
65636;SDS011;52327;42.622;23.316;2022-10-17T00:49:41;0.77;;;0.55;;
65636;SDS011;52327;42.622;23.316;2022-10-17T00:52:08;2.80;;;0.98;;
65636;SDS011;52327;42.622;23.316;2022-10-17T00:54:38;0.85;;;0.63;;
65636;SDS011;52327;42.622;23.316;2022-10-17T00:57:07;0.73;;;0.63;;
65636;SDS011;52327;42.622;23.316;2022-10-17T00:59:33;0.65;;;0.65;;
65636;SDS011;52327;42.622;23.316;2022-10-17T01:02:09;0.38;;;0.38;;
65636;SDS011;52327;42.622;23.316;2022-10-17T01:04:41;0.77;;;0.70;;
65636;SDS011;52327;42.622;23.316;2022-10-17T01:07:09;0.88;;;0.80;;
65636;SDS011;52327;42.622;23.316;2022-10-17T01:09:35;0.68;;;0.50;;
65636;SDS011;52327;42.622;23.316;2022-10-17T01:12:10;1.27;;;0.85;;
65636;SDS011;52327;42.622;23.316;2022-10-17T01:31:47;1.10;;;1.00;;
65636;SDS011;52327;42.622;23.316;2022-10-17T01:37:03;0.30;;;0.30;;
65636;SDS011;52327;42.622;23.316;2022-10-17T01:42:20;0.88;;;0.60;;
65636;SDS011;52327;42.622;23.316;2022-10-17T01:47:25;0.10;;;0.10;;
65636;SDS011;52327;42.622;23.316;2022-10-17T01:49:54;0.40;;;0.40;;
65636;SDS011;52327;42.622;23.316;2022-10-17T01:52:25;0.35;;;0.35;;
65636;SDS011;52327;42.622;23.316;2022-10-17T01:54:57;1.23;;;0.38;;
65636;SDS011;52327;42.622;23.316;2022-10-17T01:57:33;0.30;;;0.30;;
65636;SDS011;52327;42.622;23.316;2022-10-17T02:00:03;0.10;;;0.10;;
65636;SDS011;52327;42.622;23.316;2022-10-17T02:02:33;0.45;;;0.30;;
65636;SDS011;52327;42.622;23.316;2022-10-17T02:05:00;0.20;;;0.20;;
65636;SDS011;52327;42.622;23.316;2022-10-17T02:07:27;0.20;;;0.20;;
65636;SDS011;52327;42.622;23.316;2022-10-17T02:09:53;0.20;;;0.13;;
65636;SDS011;52327;42.622;23.316;2022-10-17T02:12:36;0.40;;;0.38;;
65636;SDS011;52327;42.622;23.316;2022-10-17T02:15:27;0.20;;;0.20;;
65636;SDS011;52327;42.622;23.316;2022-10-17T02:20:47;1.08;;;0.73;;
65636;SDS011;52327;42.622;23.316;2022-10-17T02:23:19;0.10;;;0.10;;
65636;SDS011;52327;42.622;23.316;2022-10-17T02:28:41;0.30;;;0.30;;
65636;SDS011;52327;42.622;23.316;2022-10-17T02:31:13;0.22;;;0.22;;
65636;SDS011;52327;42.622;23.316;2022-10-17T02:34:16;0.10;;;0.10;;
65636;SDS011;52327;42.622;23.316;2022-10-17T02:36:47;0.73;;;0.73;;
65636;SDS011;52327;42.622;23.316;2022-10-17T02:39:15;0.20;;;0.20;;
65636;SDS011;52327;42.622;23.316;2022-10-17T02:41:43;0.73;;;0.45;;
65636;SDS011;52327;42.622;23.316;2022-10-17T02:44:09;0.10;;;0.10;;
65636;SDS011;52327;42.622;23.316;2022-10-17T02:46:36;0.20;;;0.20;;
65636;SDS011;52327;42.622;23.316;2022-10-17T02:49:07;0.32;;;0.32;;
65636;SDS011;52327;42.622;23.316;2022-10-17T02:52:24;0.10;;;0.10;;
65636;SDS011;52327;42.622;23.316;2022-10-17T02:54:31;0.40;;;0.40;;
65636;SDS011;52327;42.622;23.316;2022-10-17T02:59:57;0.10;;;0.10;;
65636;SDS011;52327;42.622;23.316;2022-10-17T03:02:25;0.28;;;0.25;;
65636;SDS011;52327;42.622;23.316;2022-10-17T03:04:50;0.60;;;0.55;;
65636;SDS011;52327;42.622;23.316;2022-10-17T03:07:16;0.30;;;0.30;;
65636;SDS011;52327;42.622;23.316;2022-10-17T03:09:41;0.38;;;0.20;;
65636;SDS011;52327;42.622;23.316;2022-10-17T03:12:07;0.77;;;0.77;;
65636;SDS011;52327;42.622;23.316;2022-10-17T03:14:33;0.35;;;0.35;;
65636;SDS011;52327;42.622;23.316;2022-10-17T03:16:59;0.20;;;0.20;;
65636;SDS011;52327;42.622;23.316;2022-10-17T03:19:24;0.73;;;0.50;;
65636;SDS011;52327;42.622;23.316;2022-10-17T03:21:50;0.63;;;0.57;;
65636;SDS011;52327;42.622;23.316;2022-10-17T03:24:15;0.22;;;0.20;;
65636;SDS011;52327;42.622;23.316;2022-10-17T03:26:41;0.47;;;0.47;;
65636;SDS011;52327;42.622;23.316;2022-10-17T03:29:06;0.75;;;0.75;;
65636;SDS011;52327;42.622;23.316;2022-10-17T03:31:31;1.35;;;0.45;;
65636;SDS011;52327;42.622;23.316;2022-10-17T03:33:57;2.08;;;1.10;;
65636;SDS011;52327;42.622;23.316;2022-10-17T03:36:22;0.40;;;0.40;;
65636;SDS011;52327;42.622;23.316;2022-10-17T03:38:48;0.20;;;0.20;;
65636;SDS011;52327;42.622;23.316;2022-10-17T03:41:17;1.65;;;0.50;;
65636;SDS011;52327;42.622;23.316;2022-10-17T03:43:42;0.80;;;0.45;;
65636;SDS011;52327;42.622;23.316;2022-10-17T03:46:07;0.82;;;0.73;;
65636;SDS011;52327;42.622;23.316;2022-10-17T03:48:33;0.35;;;0.30;;
65636;SDS011;52327;42.622;23.316;2022-10-17T03:50:59;0.73;;;0.73;;
65636;SDS011;52327;42.622;23.316;2022-10-17T03:53:26;0.22;;;0.22;;
65636;SDS011;52327;42.622;23.316;2022-10-17T03:55:52;0.28;;;0.20;;
65636;SDS011;52327;42.622;23.316;2022-10-17T03:58:18;0.40;;;0.40;;
65636;SDS011;52327;42.622;23.316;2022-10-17T04:00:43;0.35;;;0.32;;
65636;SDS011;52327;42.622;23.316;2022-10-17T04:03:08;0.65;;;0.57;;
65636;SDS011;52327;42.622;23.316;2022-10-17T04:05:34;0.28;;;0.28;;
65636;SDS011;52327;42.622;23.316;2022-10-17T04:07:59;2.00;;;0.77;;
65636;SDS011;52327;42.622;23.316;2022-10-17T04:10:25;1.02;;;0.93;;
65636;SDS011;52327;42.622;23.316;2022-10-17T04:12:50;0.75;;;0.68;;
65636;SDS011;52327;42.622;23.316;2022-10-17T04:15:15;0.65;;;0.65;;
65636;SDS011;52327;42.622;23.316;2022-10-17T04:17:41;0.77;;;0.70;;
65636;SDS011;52327;42.622;23.316;2022-10-17T04:20:06;1.08;;;0.75;;
65636;SDS011;52327;42.622;23.316;2022-10-17T04:22:32;0.75;;;0.75;;
65636;SDS011;52327;42.622;23.316;2022-10-17T04:24:58;0.30;;;0.30;;
65636;SDS011;52327;42.622;23.316;2022-10-17T04:27:23;0.20;;;0.20;;
65636;SDS011;52327;42.622;23.316;2022-10-17T04:29:48;1.85;;;1.38;;
65636;SDS011;52327;42.622;23.316;2022-10-17T04:32:14;0.95;;;0.50;;
65636;SDS011;52327;42.622;23.316;2022-10-17T04:34:39;1.52;;;0.70;;
65636;SDS011;52327;42.622;23.316;2022-10-17T04:37:05;0.75;;;0.75;;
65636;SDS011;52327;42.622;23.316;2022-10-17T04:39:30;0.95;;;0.90;;
65636;SDS011;52327;42.622;23.316;2022-10-17T04:41:55;0.82;;;0.75;;
65636;SDS011;52327;42.622;23.316;2022-10-17T04:44:21;2.72;;;0.55;;
65636;SDS011;52327;42.622;23.316;2022-10-17T04:46:47;0.95;;;0.90;;
65636;SDS011;52327;42.622;23.316;2022-10-17T04:49:13;0.85;;;0.80;;
65636;SDS011;52327;42.622;23.316;2022-10-17T04:51:38;0.95;;;0.65;;
65636;SDS011;52327;42.622;23.316;2022-10-17T04:54:04;1.00;;;0.73;;
65636;SDS011;52327;42.622;23.316;2022-10-17T04:56:29;1.42;;;0.60;;
65636;SDS011;52327;42.622;23.316;2022-10-17T04:58:55;0.43;;;0.43;;
65636;SDS011;52327;42.622;23.316;2022-10-17T05:01:22;0.98;;;0.57;;
65636;SDS011;52327;42.622;23.316;2022-10-17T05:03:47;0.95;;;0.75;;
65636;SDS011;52327;42.622;23.316;2022-10-17T05:06:17;1.65;;;0.93;;
65636;SDS011;52327;42.622;23.316;2022-10-17T05:08:48;0.60;;;0.45;;
65636;SDS011;52327;42.622;23.316;2022-10-17T05:11:18;8.98;;;1.30;;
65636;SDS011;52327;42.622;23.316;2022-10-17T05:13:52;2.17;;;0.85;;
65636;SDS011;52327;42.622;23.316;2022-10-17T05:16:20;1.15;;;0.73;;
65636;SDS011;52327;42.622;23.316;2022-10-17T05:18:49;1.48;;;1.23;;
65636;SDS011;52327;42.622;23.316;2022-10-17T05:21:16;1.90;;;1.73;;
65636;SDS011;52327;42.622;23.316;2022-10-17T05:23:42;1.27;;;1.15;;
65636;SDS011;52327;42.622;23.316;2022-10-17T05:26:07;0.95;;;0.90;;
65636;SDS011;52327;42.622;23.316;2022-10-17T05:28:33;1.25;;;1.15;;
65636;SDS011;52327;42.622;23.316;2022-10-17T05:31:05;2.28;;;1.13;;
65636;SDS011;52327;42.622;23.316;2022-10-17T05:33:32;2.10;;;1.10;;
65636;SDS011;52327;42.622;23.316;2022-10-17T05:35:58;0.75;;;0.68;;
65636;SDS011;52327;42.622;23.316;2022-10-17T05:38:23;1.52;;;1.42;;
65636;SDS011;52327;42.622;23.316;2022-10-17T05:40:49;1.50;;;1.40;;
65636;SDS011;52327;42.622;23.316;2022-10-17T05:43:15;2.38;;;1.65;;
65636;SDS011;52327;42.622;23.316;2022-10-17T05:45:40;1.42;;;1.33;;
65636;SDS011;52327;42.622;23.316;2022-10-17T05:48:06;1.75;;;1.40;;
65636;SDS011;52327;42.622;23.316;2022-10-17T05:50:33;1.25;;;0.93;;
65636;SDS011;52327;42.622;23.316;2022-10-17T05:52:59;4.78;;;2.70;;
65636;SDS011;52327;42.622;23.316;2022-10-17T05:55:25;1.77;;;1.67;;
65636;SDS011;52327;42.622;23.316;2022-10-17T05:57:52;5.00;;;2.70;;
65636;SDS011;52327;42.622;23.316;2022-10-17T06:07:17;1.23;;;1.13;;
65636;SDS011;52327;42.622;23.316;2022-10-17T06:10:03;2.47;;;2.28;;
65636;SDS011;52327;42.622;23.316;2022-10-17T06:13:03;2.60;;;2.10;;
65636;SDS011;52327;42.622;23.316;2022-10-17T06:16:03;2.50;;;1.67;;
65636;SDS011;52327;42.622;23.316;2022-10-17T06:19:00;1.73;;;1.60;;
65636;SDS011;52327;42.622;23.316;2022-10-17T06:24:25;1.88;;;1.52;;
65636;SDS011;52327;42.622;23.316;2022-10-17T06:27:39;3.45;;;2.58;;
65636;SDS011;52327;42.622;23.316;2022-10-17T06:30:17;2.85;;;2.05;;
65636;SDS011;52327;42.622;23.316;2022-10-17T06:33:07;6.18;;;3.10;;
65636;SDS011;52327;42.622;23.316;2022-10-17T06:35:38;7.65;;;4.75;;
65636;SDS011;52327;42.622;23.316;2022-10-17T06:38:19;1.93;;;1.63;;
65636;SDS011;52327;42.622;23.316;2022-10-17T06:44:38;4.35;;;2.55;;
65636;SDS011;52327;42.622;23.316;2022-10-17T06:47:30;2.05;;;1.95;;
65636;SDS011;52327;42.622;23.316;2022-10-17T06:53:33;2.10;;;1.88;;
65636;SDS011;52327;42.622;23.316;2022-10-17T06:56:09;3.67;;;3.03;;
65636;SDS011;52327;42.622;23.316;2022-10-17T06:58:45;1.65;;;1.55;;
65636;SDS011;52327;42.622;23.316;2022-10-17T07:01:19;2.60;;;1.80;;
65636;SDS011;52327;42.622;23.316;2022-10-17T07:03:46;3.17;;;2.85;;
65636;SDS011;52327;42.622;23.316;2022-10-17T07:06:14;2.92;;;2.63;;
65636;SDS011;52327;42.622;23.316;2022-10-17T07:08:42;3.95;;;2.30;;
65636;SDS011;52327;42.622;23.316;2022-10-17T07:11:13;4.35;;;2.33;;
65636;SDS011;52327;42.622;23.316;2022-10-17T07:13:40;4.90;;;3.08;;
65636;SDS011;52327;42.622;23.316;2022-10-17T07:16:06;7.38;;;2.75;;
65636;SDS011;52327;42.622;23.316;2022-10-17T07:18:32;4.03;;;2.22;;
65636;SDS011;52327;42.622;23.316;2022-10-17T07:20:57;2.70;;;2.47;;
65636;SDS011;52327;42.622;23.316;2022-10-17T07:23:23;3.15;;;2.72;;
65636;SDS011;52327;42.622;23.316;2022-10-17T07:25:49;3.15;;;2.05;;
65636;SDS011;52327;42.622;23.316;2022-10-17T07:28:14;2.65;;;2.25;;
65636;SDS011;52327;42.622;23.316;2022-10-17T07:30:40;4.63;;;2.95;;
65636;SDS011;52327;42.622;23.316;2022-10-17T07:33:06;4.20;;;2.13;;
65636;SDS011;52327;42.622;23.316;2022-10-17T07:35:31;4.75;;;3.33;;
65636;SDS011;52327;42.622;23.316;2022-10-17T07:37:57;3.72;;;2.95;;
65636;SDS011;52327;42.622;23.316;2022-10-17T07:40:22;2.20;;;1.90;;
65636;SDS011;52327;42.622;23.316;2022-10-17T07:42:48;2.80;;;2.42;;
65636;SDS011;52327;42.622;23.316;2022-10-17T07:45:15;4.57;;;2.25;;
65636;SDS011;52327;42.622;23.316;2022-10-17T07:47:41;1.80;;;1.38;;
65636;SDS011;52327;42.622;23.316;2022-10-17T07:50:07;3.20;;;1.77;;
65636;SDS011;52327;42.622;23.316;2022-10-17T07:52:32;3.05;;;2.05;;
65636;SDS011;52327;42.622;23.316;2022-10-17T07:55:19;2.58;;;1.65;;
65636;SDS011;52327;42.622;23.316;2022-10-17T07:57:44;2.15;;;1.67;;
65636;SDS011;52327;42.622;23.316;2022-10-17T08:00:13;1.50;;;1.40;;
65636;SDS011;52327;42.622;23.316;2022-10-17T08:02:38;1.40;;;0.93;;
65636;SDS011;52327;42.622;23.316;2022-10-17T08:05:04;1.48;;;1.38;;
65636;SDS011;52327;42.622;23.316;2022-10-17T08:07:30;1.42;;;1.02;;
65636;SDS011;52327;42.622;23.316;2022-10-17T08:09:55;3.95;;;1.10;;
65636;SDS011;52327;42.622;23.316;2022-10-17T08:12:21;0.93;;;0.82;;
65636;SDS011;52327;42.622;23.316;2022-10-17T08:14:46;1.85;;;1.38;;
65636;SDS011;52327;42.622;23.316;2022-10-17T08:17:12;1.83;;;1.25;;
65636;SDS011;52327;42.622;23.316;2022-10-17T08:19:38;2.17;;;1.45;;
65636;SDS011;52327;42.622;23.316;2022-10-17T08:22:04;4.47;;;2.00;;
65636;SDS011;52327;42.622;23.316;2022-10-17T08:24:30;5.28;;;1.38;;
65636;SDS011;52327;42.622;23.316;2022-10-17T08:26:56;2.50;;;1.45;;
65636;SDS011;52327;42.622;23.316;2022-10-17T08:29:22;1.80;;;1.45;;
65636;SDS011;52327;42.622;23.316;2022-10-17T08:31:48;1.92;;;1.20;;
65636;SDS011;52327;42.622;23.316;2022-10-17T08:34:13;1.63;;;1.48;;
65636;SDS011;52327;42.622;23.316;2022-10-17T08:36:39;0.85;;;0.82;;
65636;SDS011;52327;42.622;23.316;2022-10-17T08:39:05;2.83;;;1.23;;
65636;SDS011;52327;42.622;23.316;2022-10-17T08:44:04;4.43;;;1.67;;
65636;SDS011;52327;42.622;23.316;2022-10-17T08:46:36;1.38;;;1.10;;
65636;SDS011;52327;42.622;23.316;2022-10-17T08:49:06;1.30;;;1.00;;
65636;SDS011;52327;42.622;23.316;2022-10-17T08:51:37;1.85;;;1.33;;
65636;SDS011;52327;42.622;23.316;2022-10-17T08:54:23;1.15;;;1.00;;
65636;SDS011;52327;42.622;23.316;2022-10-17T08:56:58;1.83;;;1.23;;
65636;SDS011;52327;42.622;23.316;2022-10-17T08:59:28;5.05;;;2.67;;
65636;SDS011;52327;42.622;23.316;2022-10-17T09:02:20;6.10;;;1.50;;
65636;SDS011;52327;42.622;23.316;2022-10-17T09:10:15;1.17;;;0.80;;
65636;SDS011;52327;42.622;23.316;2022-10-17T09:12:51;1.50;;;0.85;;
65636;SDS011;52327;42.622;23.316;2022-10-17T09:15:42;1.42;;;0.73;;
65636;SDS011;52327;42.622;23.316;2022-10-17T09:20:53;0.82;;;0.55;;
65636;SDS011;52327;42.622;23.316;2022-10-17T09:23:42;2.60;;;1.48;;
65636;SDS011;52327;42.622;23.316;2022-10-17T09:26:13;1.17;;;0.80;;
65636;SDS011;52327;42.622;23.316;2022-10-17T09:28:39;3.42;;;1.77;;
65636;SDS011;52327;42.622;23.316;2022-10-17T09:33:59;2.22;;;1.25;;
65636;SDS011;52327;42.622;23.316;2022-10-17T09:36:27;1.48;;;0.80;;
65636;SDS011;52327;42.622;23.316;2022-10-17T09:41:47;4.30;;;1.05;;
65636;SDS011;52327;42.622;23.316;2022-10-17T09:47:07;1.05;;;0.95;;
65636;SDS011;52327;42.622;23.316;2022-10-17T09:49:50;2.60;;;1.27;;
65636;SDS011;52327;42.622;23.316;2022-10-17T09:52:21;0.60;;;0.60;;
65636;SDS011;52327;42.622;23.316;2022-10-17T09:57:55;1.60;;;0.82;;
65636;SDS011;52327;42.622;23.316;2022-10-17T10:00:24;0.95;;;0.73;;
65636;SDS011;52327;42.622;23.316;2022-10-17T10:03:13;2.22;;;1.05;;
65636;SDS011;52327;42.622;23.316;2022-10-17T10:05:40;2.22;;;0.93;;
65636;SDS011;52327;42.622;23.316;2022-10-17T10:08:14;2.90;;;0.80;;
65636;SDS011;52327;42.622;23.316;2022-10-17T10:10:42;0.73;;;0.73;;
65636;SDS011;52327;42.622;23.316;2022-10-17T10:15:38;1.60;;;1.00;;
65636;SDS011;52327;42.622;23.316;2022-10-17T10:18:28;1.75;;;1.10;;
65636;SDS011;52327;42.622;23.316;2022-10-17T10:21:09;0.55;;;0.50;;
65636;SDS011;52327;42.622;23.316;2022-10-17T10:23:40;1.50;;;0.93;;
65636;SDS011;52327;42.622;23.316;2022-10-17T10:28:47;1.10;;;0.60;;
65636;SDS011;52327;42.622;23.316;2022-10-17T10:31:16;1.67;;;0.80;;
65636;SDS011;52327;42.622;23.316;2022-10-17T10:34:17;0.65;;;0.65;;
65636;SDS011;52327;42.622;23.316;2022-10-17T10:39:29;1.58;;;1.08;;
65636;SDS011;52327;42.622;23.316;2022-10-17T10:41:58;1.27;;;0.77;;
65636;SDS011;52327;42.622;23.316;2022-10-17T10:44:26;0.88;;;0.47;;
65636;SDS011;52327;42.622;23.316;2022-10-17T10:49:42;1.73;;;1.17;;
65636;SDS011;52327;42.622;23.316;2022-10-17T10:52:09;0.70;;;0.70;;
65636;SDS011;52327;42.622;23.316;2022-10-17T10:54:48;1.55;;;1.00;;
65636;SDS011;52327;42.622;23.316;2022-10-17T10:57:19;3.92;;;0.90;;
65636;SDS011;52327;42.622;23.316;2022-10-17T10:59:59;1.65;;;1.00;;
65636;SDS011;52327;42.622;23.316;2022-10-17T11:02:41;0.80;;;0.80;;
65636;SDS011;52327;42.622;23.316;2022-10-17T11:05:21;1.15;;;0.98;;
65636;SDS011;52327;42.622;23.316;2022-10-17T11:08:10;0.82;;;0.70;;
65636;SDS011;52327;42.622;23.316;2022-10-17T11:11:06;1.65;;;1.00;;
65636;SDS011;52327;42.622;23.316;2022-10-17T11:14:17;0.85;;;0.70;;
65636;SDS011;52327;42.622;23.316;2022-10-17T11:27:28;1.48;;;0.82;;
65636;SDS011;52327;42.622;23.316;2022-10-17T11:29:54;10.65;;;1.23;;
65636;SDS011;52327;42.622;23.316;2022-10-17T11:32:28;1.65;;;1.30;;
65636;SDS011;52327;42.622;23.316;2022-10-17T11:35:14;3.53;;;1.00;;
65636;SDS011;52327;42.622;23.316;2022-10-17T11:37:46;1.10;;;0.90;;
65636;SDS011;52327;42.622;23.316;2022-10-17T11:42:52;2.97;;;1.17;;
65636;SDS011;52327;42.622;23.316;2022-10-17T11:45:25;1.77;;;1.30;;
65636;SDS011;52327;42.622;23.316;2022-10-17T11:50:30;1.70;;;0.95;;
65636;SDS011;52327;42.622;23.316;2022-10-17T11:53:11;0.90;;;0.68;;
65636;SDS011;52327;42.622;23.316;2022-10-17T11:55:45;2.03;;;1.00;;
65636;SDS011;52327;42.622;23.316;2022-10-17T12:01:11;0.63;;;0.60;;
65636;SDS011;52327;42.622;23.316;2022-10-17T12:09:17;0.52;;;0.52;;
65636;SDS011;52327;42.622;23.316;2022-10-17T12:12:05;0.60;;;0.57;;
65636;SDS011;52327;42.622;23.316;2022-10-17T12:14:43;0.68;;;0.60;;
65636;SDS011;52327;42.622;23.316;2022-10-17T12:17:43;0.85;;;0.70;;
65636;SDS011;52327;42.622;23.316;2022-10-17T12:22:45;0.70;;;0.57;;
65636;SDS011;52327;42.622;23.316;2022-10-17T12:25:16;1.15;;;0.98;;
65636;SDS011;52327;42.622;23.316;2022-10-17T12:27:44;1.00;;;0.75;;
65636;SDS011;52327;42.622;23.316;2022-10-17T12:32:43;3.08;;;1.05;;
65636;SDS011;52327;42.622;23.316;2022-10-17T12:35:21;1.58;;;0.98;;
65636;SDS011;52327;42.622;23.316;2022-10-17T12:43:00;1.08;;;0.70;;
65636;SDS011;52327;42.622;23.316;2022-10-17T12:45:56;4.78;;;1.38;;
65636;SDS011;52327;42.622;23.316;2022-10-17T12:56:28;2.35;;;1.08;;
65636;SDS011;52327;42.622;23.316;2022-10-17T12:58:57;1.98;;;1.13;;
65636;SDS011;52327;42.622;23.316;2022-10-17T13:01:30;0.77;;;0.68;;
65636;SDS011;52327;42.622;23.316;2022-10-17T13:03:58;1.33;;;1.23;;
65636;SDS011;52327;42.622;23.316;2022-10-17T13:06:30;2.17;;;0.90;;
65636;SDS011;52327;42.622;23.316;2022-10-17T13:09:13;2.13;;;0.85;;
65636;SDS011;52327;42.622;23.316;2022-10-17T13:11:46;1.48;;;1.15;;
65636;SDS011;52327;42.622;23.316;2022-10-17T13:14:13;1.13;;;0.80;;
65636;SDS011;52327;42.622;23.316;2022-10-17T13:16:57;2.20;;;1.17;;
65636;SDS011;52327;42.622;23.316;2022-10-17T13:19:45;1.55;;;0.95;;
65636;SDS011;52327;42.622;23.316;2022-10-17T13:22:20;1.83;;;1.00;;
65636;SDS011;52327;42.622;23.316;2022-10-17T13:24:51;1.75;;;1.27;;
65636;SDS011;52327;42.622;23.316;2022-10-17T13:27:30;1.98;;;1.25;;
65636;SDS011;52327;42.622;23.316;2022-10-17T13:29:57;1.00;;;0.80;;
65636;SDS011;52327;42.622;23.316;2022-10-17T13:32:26;1.42;;;1.05;;
65636;SDS011;52327;42.622;23.316;2022-10-17T13:35:04;1.42;;;0.88;;
65636;SDS011;52327;42.622;23.316;2022-10-17T13:37:34;1.70;;;0.98;;
65636;SDS011;52327;42.622;23.316;2022-10-17T13:40:00;1.77;;;1.33;;
65636;SDS011;52327;42.622;23.316;2022-10-17T13:42:30;1.35;;;1.02;;
65636;SDS011;52327;42.622;23.316;2022-10-17T13:45:02;2.05;;;0.90;;
65636;SDS011;52327;42.622;23.316;2022-10-17T13:47:37;1.45;;;1.05;;
65636;SDS011;52327;42.622;23.316;2022-10-17T13:50:03;1.52;;;0.98;;
65636;SDS011;52327;42.622;23.316;2022-10-17T13:52:30;1.60;;;1.05;;
65636;SDS011;52327;42.622;23.316;2022-10-17T13:55:05;1.27;;;0.98;;
65636;SDS011;52327;42.622;23.316;2022-10-17T13:57:38;1.52;;;1.23;;
65636;SDS011;52327;42.622;23.316;2022-10-17T14:00:05;0.93;;;0.85;;
65636;SDS011;52327;42.622;23.316;2022-10-17T14:02:39;1.27;;;0.88;;
65636;SDS011;52327;42.622;23.316;2022-10-17T14:10:32;1.17;;;0.77;;
65636;SDS011;52327;42.622;23.316;2022-10-17T14:13:02;1.75;;;1.00;;
65636;SDS011;52327;42.622;23.316;2022-10-17T14:15:32;1.13;;;0.95;;
65636;SDS011;52327;42.622;23.316;2022-10-17T14:18:00;1.27;;;0.80;;
65636;SDS011;52327;42.622;23.316;2022-10-17T14:20:27;1.13;;;0.60;;
65636;SDS011;52327;42.622;23.316;2022-10-17T14:22:54;1.40;;;0.90;;
65636;SDS011;52327;42.622;23.316;2022-10-17T14:30:48;1.42;;;0.88;;
65636;SDS011;52327;42.622;23.316;2022-10-17T14:33:28;0.97;;;0.87;;
65636;SDS011;52327;42.622;23.316;2022-10-17T14:35:56;0.65;;;0.55;;
65636;SDS011;52327;42.622;23.316;2022-10-17T14:38:23;1.45;;;0.70;;
65636;SDS011;52327;42.622;23.316;2022-10-17T14:41:31;0.57;;;0.50;;
65636;SDS011;52327;42.622;23.316;2022-10-17T14:43:52;1.88;;;1.10;;
65636;SDS011;52327;42.622;23.316;2022-10-17T14:46:20;1.23;;;0.88;;
65636;SDS011;52327;42.622;23.316;2022-10-17T14:48:47;0.80;;;0.65;;
65636;SDS011;52327;42.622;23.316;2022-10-17T14:51:17;1.25;;;0.80;;
65636;SDS011;52327;42.622;23.316;2022-10-17T14:53:43;1.52;;;0.90;;
65636;SDS011;52327;42.622;23.316;2022-10-17T14:56:40;1.42;;;0.95;;
65636;SDS011;52327;42.622;23.316;2022-10-17T14:59:07;0.60;;;0.60;;
65636;SDS011;52327;42.622;23.316;2022-10-17T15:01:35;1.38;;;0.77;;
65636;SDS011;52327;42.622;23.316;2022-10-17T15:04:01;2.30;;;1.50;;
65636;SDS011;52327;42.622;23.316;2022-10-17T15:06:28;0.40;;;0.40;;
65636;SDS011;52327;42.622;23.316;2022-10-17T15:08:56;1.05;;;0.60;;
65636;SDS011;52327;42.622;23.316;2022-10-17T15:11:22;0.57;;;0.57;;
65636;SDS011;52327;42.622;23.316;2022-10-17T15:13:48;3.75;;;0.88;;
65636;SDS011;52327;42.622;23.316;2022-10-17T15:16:18;1.10;;;0.57;;
65636;SDS011;52327;42.622;23.316;2022-10-17T15:18:47;0.60;;;0.57;;
65636;SDS011;52327;42.622;23.316;2022-10-17T15:21:14;0.80;;;0.70;;
65636;SDS011;52327;42.622;23.316;2022-10-17T15:23:41;1.88;;;1.15;;
65636;SDS011;52327;42.622;23.316;2022-10-17T15:26:23;1.20;;;0.60;;
65636;SDS011;52327;42.622;23.316;2022-10-17T15:28:53;1.88;;;0.80;;
65636;SDS011;52327;42.622;23.316;2022-10-17T15:31:19;0.73;;;0.47;;
65636;SDS011;52327;42.622;23.316;2022-10-17T15:33:47;1.33;;;1.00;;
65636;SDS011;52327;42.622;23.316;2022-10-17T15:36:19;1.98;;;0.88;;
65636;SDS011;52327;42.622;23.316;2022-10-17T15:38:46;0.68;;;0.63;;
65636;SDS011;52327;42.622;23.316;2022-10-17T15:41:11;0.52;;;0.50;;
65636;SDS011;52327;42.622;23.316;2022-10-17T15:43:37;1.23;;;0.73;;
65636;SDS011;52327;42.622;23.316;2022-10-17T15:46:02;0.55;;;0.55;;
65636;SDS011;52327;42.622;23.316;2022-10-17T15:48:29;0.98;;;0.57;;
65636;SDS011;52327;42.622;23.316;2022-10-17T15:50:55;1.52;;;0.70;;
65636;SDS011;52327;42.622;23.316;2022-10-17T15:53:21;0.52;;;0.52;;
65636;SDS011;52327;42.622;23.316;2022-10-17T15:55:47;0.45;;;0.45;;
65636;SDS011;52327;42.622;23.316;2022-10-17T15:58:15;3.42;;;0.98;;
65636;SDS011;52327;42.622;23.316;2022-10-17T16:00:42;0.85;;;0.50;;
65636;SDS011;52327;42.622;23.316;2022-10-17T16:03:08;1.65;;;1.02;;
65636;SDS011;52327;42.622;23.316;2022-10-17T16:05:34;1.00;;;0.70;;
65636;SDS011;52327;42.622;23.316;2022-10-17T16:07:59;1.67;;;1.33;;
65636;SDS011;52327;42.622;23.316;2022-10-17T16:10:24;0.77;;;0.77;;
65636;SDS011;52327;42.622;23.316;2022-10-17T16:12:50;0.60;;;0.60;;
65636;SDS011;52327;42.622;23.316;2022-10-17T16:15:17;0.93;;;0.60;;
65636;SDS011;52327;42.622;23.316;2022-10-17T16:17:47;2.42;;;1.58;;
65636;SDS011;52327;42.622;23.316;2022-10-17T16:20:13;2.33;;;1.30;;
65636;SDS011;52327;42.622;23.316;2022-10-17T16:22:39;1.33;;;0.90;;
65636;SDS011;52327;42.622;23.316;2022-10-17T16:25:09;1.25;;;1.15;;
65636;SDS011;52327;42.622;23.316;2022-10-17T16:27:43;1.70;;;0.95;;
65636;SDS011;52327;42.622;23.316;2022-10-17T16:30:10;0.70;;;0.60;;
65636;SDS011;52327;42.622;23.316;2022-10-17T16:32:36;0.60;;;0.43;;
65636;SDS011;52327;42.622;23.316;2022-10-17T16:35:01;1.60;;;1.10;;
65636;SDS011;52327;42.622;23.316;2022-10-17T16:37:27;1.40;;;1.15;;
65636;SDS011;52327;42.622;23.316;2022-10-17T16:39:53;1.67;;;1.20;;
65636;SDS011;52327;42.622;23.316;2022-10-17T16:42:19;1.55;;;1.27;;
65636;SDS011;52327;42.622;23.316;2022-10-17T16:44:45;3.83;;;1.40;;
65636;SDS011;52327;42.622;23.316;2022-10-17T16:47:11;1.05;;;0.80;;
65636;SDS011;52327;42.622;23.316;2022-10-17T16:49:36;4.90;;;3.20;;
65636;SDS011;52327;42.622;23.316;2022-10-17T16:52:02;4.47;;;3.30;;
65636;SDS011;52327;42.622;23.316;2022-10-17T16:54:28;1.77;;;1.30;;
65636;SDS011;52327;42.622;23.316;2022-10-17T16:56:54;0.50;;;0.50;;
65636;SDS011;52327;42.622;23.316;2022-10-17T16:59:22;1.85;;;1.20;;
65636;SDS011;52327;42.622;23.316;2022-10-17T17:01:48;2.60;;;1.17;;
65636;SDS011;52327;42.622;23.316;2022-10-17T17:04:14;0.30;;;0.30;;
65636;SDS011;52327;42.622;23.316;2022-10-17T17:06:39;0.75;;;0.73;;
65636;SDS011;52327;42.622;23.316;2022-10-17T17:09:04;0.75;;;0.63;;
65636;SDS011;52327;42.622;23.316;2022-10-17T17:11:30;1.38;;;0.85;;